Terminal Aerodrome Forecast
Issued by NWS

Home | Current Version | Previous Version | Graphics & Text | Print | Product List | Glossary On
Versions: 1 2 3 4 5 6 7 8 9 10 11 12 13 14 15 16 17
000
FTUS43 KICT 241100
TAFRSL
TAF
KRSL 241132Z 2412/2512 20015KT P6SM SCT150
     FM241500 21016G25KT P6SM SCT100
     FM242100 24011G18KT P6SM SCT100
     FM250200 23015KT P6SM VCTS BKN060CB=

USA.gov is the U.S. government's official web portal to all federal, state and local government web resources and services.